createdAt,value
2023-01-12T00:01:15.643Z,10.50
2023-01-12T00:02:47.308Z,11.10
2023-01-12T00:04:19.672Z,6.40
2023-01-12T00:05:51.413Z,10.40
2023-01-12T00:07:23.612Z,8.40
2023-01-12T00:08:55.513Z,11.60
2023-01-12T00:10:27.237Z,11.50
2023-01-12T00:11:59.149Z,9.00
2023-01-12T00:13:33.049Z,10.50
2023-01-12T00:15:05.661Z,13.50
2023-01-12T00:16:38.666Z,7.20
2023-01-12T00:18:10.383Z,11.60
2023-01-12T00:19:42.328Z,6.40
2023-01-12T00:21:15.522Z,8.70
2023-01-12T00:22:49.667Z,7.40
2023-01-12T00:24:21.502Z,7.60
2023-01-12T00:25:54.403Z,11.00
2023-01-12T00:27:26.215Z,7.30
2023-01-12T00:28:58.466Z,14.20
2023-01-12T00:30:30.370Z,11.80
2023-01-12T00:32:03.055Z,8.80
2023-01-12T00:33:37.428Z,10.10
2023-01-12T00:35:09.800Z,9.20
2023-01-12T00:36:42.117Z,9.00
2023-01-12T00:38:13.835Z,6.50
2023-01-12T00:39:56.759Z,6.90
2023-01-12T00:41:51.733Z,6.70
2023-01-12T00:43:55.866Z,8.90
2023-01-12T00:45:27.837Z,9.80
2023-01-12T00:46:59.666Z,7.50
2023-01-12T00:48:31.366Z,6.40
2023-01-12T00:50:03.516Z,7.80
2023-01-12T00:51:35.431Z,5.40
2023-01-12T00:53:07.136Z,10.40
2023-01-12T00:54:39.126Z,9.30
2023-01-12T00:56:10.825Z,7.40
2023-01-12T00:57:42.978Z,10.10
2023-01-12T00:59:14.765Z,5.90
2023-01-12T01:00:46.516Z,6.60
2023-01-12T01:02:18.322Z,8.60
2023-01-12T01:03:50.144Z,6.70
2023-01-12T01:05:21.909Z,8.40
2023-01-12T01:06:53.824Z,10.40
2023-01-12T01:08:25.501Z,10.00
2023-01-12T01:09:57.220Z,8.50
2023-01-12T01:11:28.908Z,8.30
2023-01-12T01:13:00.573Z,6.70
2023-01-12T01:14:32.300Z,7.20
2023-01-12T01:16:05.488Z,7.00
2023-01-12T01:17:37.299Z,6.90
2023-01-12T01:19:10.524Z,9.60
2023-01-12T01:20:47.322Z,9.80
2023-01-12T01:22:19.001Z,9.30
2023-01-12T01:23:52.830Z,7.30
2023-01-12T01:25:24.529Z,4.80
2023-01-12T01:26:56.299Z,6.50
2023-01-12T01:28:28.160Z,8.10
2023-01-12T01:29:59.934Z,9.60
2023-01-12T01:31:31.726Z,7.40
2023-01-12T01:33:03.760Z,7.70
2023-01-12T01:34:36.360Z,8.70
2023-01-12T01:36:09.938Z,7.50
2023-01-12T01:37:41.620Z,5.70
2023-01-12T01:39:13.355Z,9.40
2023-01-12T01:40:45.050Z,6.50
2023-01-12T01:42:28.182Z,6.60
2023-01-12T01:44:04.528Z,9.60
2023-01-12T01:45:36.260Z,8.10
2023-01-12T01:47:26.175Z,6.60
2023-01-12T01:49:09.737Z,7.60
2023-01-12T01:50:50.432Z,8.00
2023-01-12T01:52:39.513Z,7.00
2023-01-12T01:54:11.930Z,8.10
2023-01-12T01:55:53.240Z,7.80
2023-01-12T01:57:33.121Z,10.50
2023-01-12T01:59:18.816Z,8.80
2023-01-12T02:00:52.632Z,10.80
2023-01-12T02:02:28.694Z,9.80
2023-01-12T02:04:01.442Z,10.60
2023-01-12T02:05:33.892Z,7.00
2023-01-12T02:07:07.632Z,5.10
2023-01-12T02:08:42.424Z,12.20
2023-01-12T02:10:14.287Z,9.50
2023-01-12T02:12:05.990Z,8.60
2023-01-12T02:13:56.610Z,8.00
2023-01-12T02:16:10.187Z,11.10
2023-01-12T02:18:25.800Z,6.50
2023-01-12T02:20:55.532Z,8.60
2023-01-12T02:22:56.923Z,10.00
2023-01-12T02:25:36.471Z,8.30
2023-01-12T02:27:41.544Z,8.60
2023-01-12T02:29:45.624Z,7.70
2023-01-12T02:31:57.727Z,8.40
2023-01-12T02:34:09.131Z,8.50
2023-01-12T02:36:37.160Z,9.10
2023-01-12T02:38:21.829Z,10.50
2023-01-12T02:40:23.566Z,8.70
2023-01-12T02:42:38.322Z,10.70
2023-01-12T02:44:26.371Z,11.80
2023-01-12T02:46:23.541Z,11.60
2023-01-12T02:48:00.220Z,10.30
2023-01-12T02:49:45.166Z,8.50
2023-01-12T02:51:38.153Z,10.20
2023-01-12T02:53:38.935Z,9.20
2023-01-12T02:55:14.171Z,9.80
2023-01-12T02:56:52.065Z,10.20
2023-01-12T02:58:27.765Z,9.00
2023-01-12T03:00:02.705Z,10.80
2023-01-12T03:01:37.716Z,10.30
2023-01-12T03:03:09.573Z,10.10
2023-01-12T03:04:42.044Z,13.00
2023-01-12T03:06:18.136Z,11.70
2023-01-12T03:08:03.737Z,14.60
2023-01-12T03:09:44.758Z,9.90
2023-01-12T03:11:21.741Z,13.30
2023-01-12T03:12:57.502Z,8.30
2023-01-12T03:14:35.100Z,5.90
2023-01-12T03:16:10.128Z,12.10
2023-01-12T03:18:03.757Z,13.40
2023-01-12T03:19:36.793Z,8.70
2023-01-12T03:21:27.822Z,11.70
2023-01-12T03:23:21.749Z,8.90
2023-01-12T03:25:02.380Z,11.70
2023-01-12T03:26:40.674Z,9.80
2023-01-12T03:28:17.944Z,14.10
2023-01-12T03:30:10.855Z,9.40
2023-01-12T03:31:43.700Z,12.10
2023-01-12T03:33:15.540Z,15.00
2023-01-12T03:34:47.806Z,9.90
2023-01-12T03:36:24.537Z,13.30
2023-01-12T03:38:36.424Z,12.40
2023-01-12T03:40:37.894Z,7.60
2023-01-12T03:42:24.679Z,11.10
2023-01-12T03:44:03.700Z,11.80
2023-01-12T03:45:48.479Z,6.80
2023-01-12T03:47:28.878Z,8.40
2023-01-12T03:49:20.853Z,10.80
2023-01-12T03:51:18.609Z,9.30
2023-01-12T03:52:55.238Z,7.10
2023-01-12T03:54:29.597Z,8.10
2023-01-12T03:56:07.558Z,7.30
2023-01-12T03:57:40.307Z,9.90
2023-01-12T03:59:13.108Z,8.70
2023-01-12T04:00:44.899Z,9.50
2023-01-12T04:02:16.891Z,10.60
2023-01-12T04:03:48.659Z,10.10
2023-01-12T04:05:20.348Z,10.60
2023-01-12T04:06:52.088Z,7.50
2023-01-12T04:08:23.802Z,10.80
2023-01-12T04:09:57.129Z,5.00
2023-01-12T04:11:47.301Z,7.10
2023-01-12T04:13:19.669Z,9.70
2023-01-12T04:14:51.387Z,7.50
2023-01-12T04:16:23.141Z,12.90
2023-01-12T04:17:54.854Z,11.30
2023-01-12T04:19:26.520Z,13.00
2023-01-12T04:20:58.250Z,8.30
2023-01-12T04:22:45.325Z,9.30
2023-01-12T04:24:17.126Z,10.10
2023-01-12T04:25:49.153Z,7.70
2023-01-12T04:27:20.870Z,8.90
2023-01-12T04:28:52.600Z,9.80
2023-01-12T04:30:27.238Z,8.70
2023-01-12T04:31:59.381Z,8.00
2023-01-12T04:33:31.172Z,3.20
2023-01-12T04:35:02.901Z,9.10
2023-01-12T04:36:34.694Z,9.70
2023-01-12T04:38:08.901Z,11.30
2023-01-12T04:39:40.678Z,6.80
2023-01-12T04:41:12.496Z,6.20
2023-01-12T04:43:10.981Z,14.10
2023-01-12T04:44:42.666Z,5.40
2023-01-12T04:46:15.849Z,10.00
2023-01-12T04:47:47.686Z,8.40
2023-01-12T04:49:19.378Z,10.00
2023-01-12T04:50:51.164Z,6.70
2023-01-12T04:52:22.912Z,12.00
2023-01-12T04:53:54.670Z,11.00
2023-01-12T04:55:26.393Z,7.30
2023-01-12T04:56:58.277Z,9.90
2023-01-12T04:58:32.230Z,6.90
2023-01-12T05:00:06.420Z,7.50
2023-01-12T05:01:39.327Z,9.80
2023-01-12T05:03:13.822Z,7.40
2023-01-12T05:04:49.173Z,8.90
2023-01-12T05:06:20.885Z,9.40
2023-01-12T05:08:11.525Z,6.90
2023-01-12T05:10:02.150Z,7.10
2023-01-12T05:11:34.499Z,6.20
2023-01-12T05:13:06.284Z,7.60
2023-01-12T05:14:38.097Z,6.60
2023-01-12T05:16:13.633Z,6.30
2023-01-12T05:17:45.407Z,7.20
2023-01-12T05:19:17.093Z,8.50
2023-01-12T05:20:49.055Z,7.10
2023-01-12T05:22:20.751Z,7.00
2023-01-12T05:23:53.573Z,4.00
2023-01-12T05:25:26.952Z,4.40
2023-01-12T05:27:01.112Z,7.40
2023-01-12T05:28:33.503Z,4.50
2023-01-12T05:30:06.687Z,8.90
2023-01-12T05:31:38.590Z,5.70
2023-01-12T05:33:16.484Z,8.10
2023-01-12T05:34:48.223Z,5.50
2023-01-12T05:36:20.661Z,6.80
2023-01-12T05:37:56.626Z,4.70
2023-01-12T05:39:28.483Z,5.00
2023-01-12T05:41:03.115Z,6.70
2023-01-12T05:42:53.673Z,5.50
2023-01-12T05:44:25.457Z,6.70
2023-01-12T05:45:57.352Z,3.50
2023-01-12T05:47:29.173Z,4.70
2023-01-12T05:49:01.065Z,3.00
2023-01-12T05:50:32.835Z,5.70
2023-01-12T05:52:13.374Z,4.60
2023-01-12T05:53:45.998Z,4.40
2023-01-12T05:55:17.969Z,6.70
2023-01-12T05:56:51.311Z,3.50
2023-01-12T05:58:24.108Z,5.10
2023-01-12T05:59:56.536Z,7.30
2023-01-12T06:01:29.854Z,3.60
2023-01-12T06:03:03.854Z,8.50
2023-01-12T06:04:35.646Z,4.50
2023-01-12T06:06:07.517Z,2.70
2023-01-12T06:07:39.314Z,6.80
2023-01-12T06:09:10.993Z,6.20
2023-01-12T06:10:42.748Z,4.70
2023-01-12T06:12:33.211Z,5.80
2023-01-12T06:14:06.364Z,5.60
2023-01-12T06:15:38.151Z,5.10
2023-01-12T06:17:10.041Z,6.40
2023-01-12T06:18:41.958Z,2.70
2023-01-12T06:20:21.304Z,4.70
2023-01-12T06:21:55.299Z,4.90
2023-01-12T06:23:35.302Z,4.30
2023-01-12T06:25:08.845Z,3.10
2023-01-12T06:26:45.101Z,4.70
2023-01-12T06:28:17.629Z,4.30
2023-01-12T06:29:49.457Z,3.40
2023-01-12T06:31:21.224Z,4.60
2023-01-12T06:32:53.030Z,3.80
2023-01-12T06:34:27.820Z,3.60
2023-01-12T06:36:00.483Z,4.60
2023-01-12T06:37:32.235Z,5.30
2023-01-12T06:39:04.805Z,5.60
2023-01-12T06:40:36.532Z,4.40
2023-01-12T06:42:26.577Z,4.20
2023-01-12T06:43:59.528Z,3.30
2023-01-12T06:45:31.477Z,3.80
2023-01-12T06:47:04.735Z,4.60
2023-01-12T06:48:39.249Z,3.20
2023-01-12T06:50:13.196Z,4.60
2023-01-12T06:51:49.063Z,4.80
2023-01-12T06:53:20.927Z,4.00
2023-01-12T06:54:53.162Z,4.80
2023-01-12T06:56:24.915Z,4.30
2023-01-12T06:57:56.937Z,4.60
2023-01-12T06:59:28.799Z,2.80
2023-01-12T07:01:05.337Z,7.50
2023-01-12T07:02:37.337Z,2.90
2023-01-12T07:04:09.169Z,4.40
2023-01-12T07:05:41.014Z,6.80
2023-01-12T07:07:13.354Z,2.80
2023-01-12T07:08:45.870Z,5.80
2023-01-12T07:10:17.829Z,2.50
2023-01-12T07:11:49.615Z,4.80
2023-01-12T07:13:22.169Z,4.00
2023-01-12T07:14:56.377Z,6.00
2023-01-12T07:16:28.174Z,5.90
2023-01-12T07:17:59.935Z,3.70
2023-01-12T07:19:31.681Z,4.90
2023-01-12T07:21:09.785Z,3.70
2023-01-12T07:22:41.613Z,4.40
2023-01-12T07:24:13.312Z,4.60
2023-01-12T07:25:45.238Z,4.00
2023-01-12T07:27:16.993Z,4.50
2023-01-12T07:28:48.755Z,4.90
2023-01-12T07:30:21.798Z,5.00
2023-01-12T07:31:53.771Z,3.90
2023-01-12T07:33:25.457Z,4.10
2023-01-12T07:34:57.221Z,2.60
2023-01-12T07:36:28.969Z,5.30
2023-01-12T07:38:00.873Z,3.50
2023-01-12T07:39:32.584Z,3.90
2023-01-12T07:41:05.145Z,4.10
2023-01-12T07:42:38.198Z,6.30
2023-01-12T07:44:10.130Z,5.30
2023-01-12T07:45:41.833Z,4.50
2023-01-12T07:47:13.524Z,4.30
2023-01-12T07:48:47.855Z,5.20
2023-01-12T07:50:20.814Z,6.40
2023-01-12T07:51:54.685Z,2.60
2023-01-12T07:53:26.469Z,4.60
2023-01-12T07:54:58.402Z,6.00
2023-01-12T07:56:30.144Z,6.80
2023-01-12T07:58:03.808Z,3.00
2023-01-12T07:59:35.635Z,5.00
2023-01-12T08:01:07.530Z,4.90
2023-01-12T08:02:39.325Z,5.00
2023-01-12T08:04:11.094Z,6.40
2023-01-12T08:05:42.895Z,5.10
2023-01-12T08:07:15.210Z,7.00
2023-01-12T08:08:47.321Z,4.60
2023-01-12T08:10:19.376Z,5.50
2023-01-12T08:11:51.086Z,3.50
2023-01-12T08:13:25.674Z,3.70
2023-01-12T08:14:57.508Z,5.50
2023-01-12T08:16:41.494Z,8.10
2023-01-12T08:18:25.421Z,5.10
2023-01-12T08:20:10.750Z,4.40
2023-01-12T08:21:49.464Z,3.30
2023-01-12T08:23:31.900Z,7.50
2023-01-12T08:25:30.630Z,4.70
2023-01-12T08:27:06.807Z,4.50
2023-01-12T08:28:48.166Z,3.90
2023-01-12T08:30:25.355Z,4.20
2023-01-12T08:32:04.959Z,4.70
2023-01-12T08:33:38.668Z,2.70
2023-01-12T08:35:15.149Z,4.70
2023-01-12T08:36:47.002Z,4.50
2023-01-12T08:38:19.516Z,4.50
2023-01-12T08:39:52.573Z,4.40
2023-01-12T08:41:33.564Z,5.80
2023-01-12T08:43:05.279Z,2.40
2023-01-12T08:44:37.048Z,3.00
2023-01-12T08:46:09.055Z,7.10
2023-01-12T08:47:44.474Z,6.30
2023-01-12T08:49:24.263Z,4.40
2023-01-12T08:50:59.728Z,4.10
2023-01-12T08:52:34.472Z,4.60
2023-01-12T08:54:07.878Z,5.10
2023-01-12T08:55:39.814Z,5.20
2023-01-12T08:57:12.606Z,3.90
2023-01-12T08:58:44.396Z,4.90
2023-01-12T09:00:17.099Z,3.30
2023-01-12T09:01:49.020Z,2.30
2023-01-12T09:03:20.833Z,2.70
2023-01-12T09:04:52.805Z,6.50
2023-01-12T09:06:34.060Z,4.00
2023-01-12T09:08:05.857Z,2.30
2023-01-12T09:09:38.015Z,3.60
2023-01-12T09:11:11.707Z,2.50
2023-01-12T09:12:43.402Z,1.40
2023-01-12T09:14:17.100Z,4.70
2023-01-12T09:16:01.329Z,2.40
2023-01-12T09:17:40.528Z,7.60
2023-01-12T09:19:12.993Z,3.90
2023-01-12T09:20:44.708Z,3.60
2023-01-12T09:22:16.457Z,4.00
2023-01-12T09:23:52.676Z,3.40
2023-01-12T09:25:24.634Z,2.40
2023-01-12T09:26:56.641Z,3.90
2023-01-12T09:28:28.392Z,2.70
2023-01-12T09:30:01.577Z,5.70
2023-01-12T09:31:36.053Z,1.30
2023-01-12T09:33:07.765Z,2.30
2023-01-12T09:34:39.574Z,3.30
2023-01-12T09:36:20.213Z,3.90
2023-01-12T09:37:54.001Z,2.40
2023-01-12T09:39:28.473Z,4.40
2023-01-12T09:41:10.501Z,1.80
2023-01-12T09:43:09.462Z,2.60
2023-01-12T09:45:04.283Z,2.30
2023-01-12T09:46:57.548Z,2.80
2023-01-12T09:48:31.273Z,4.70
2023-01-12T09:50:13.240Z,2.00
2023-01-12T09:52:02.610Z,3.80
2023-01-12T09:53:41.174Z,0.90
2023-01-12T09:55:25.143Z,3.10
2023-01-12T09:57:30.438Z,2.60
2023-01-12T09:59:33.164Z,3.80
2023-01-12T10:01:24.134Z,2.20
2023-01-12T10:03:11.935Z,3.10
2023-01-12T10:04:46.288Z,2.00
2023-01-12T10:06:19.874Z,2.20
2023-01-12T10:07:55.790Z,3.00
2023-01-12T10:09:27.544Z,3.40
2023-01-12T10:11:37.648Z,4.10
2023-01-12T10:13:14.216Z,1.80
2023-01-12T10:15:05.518Z,3.50
2023-01-12T10:17:17.669Z,1.90
2023-01-12T10:18:58.995Z,3.80
2023-01-12T10:20:41.861Z,2.90
2023-01-12T10:22:39.124Z,2.00
2023-01-12T10:24:14.590Z,4.00
2023-01-12T10:26:01.827Z,5.00
2023-01-12T10:27:41.402Z,4.40
2023-01-12T10:29:13.252Z,3.00
2023-01-12T10:30:46.024Z,2.40
2023-01-12T10:32:18.132Z,4.30
2023-01-12T10:34:08.104Z,2.50
2023-01-12T10:35:57.369Z,3.00
2023-01-12T10:37:29.269Z,4.80
2023-01-12T10:39:04.974Z,4.40
2023-01-12T10:40:36.903Z,4.50
2023-01-12T10:42:37.931Z,3.40
2023-01-12T10:44:17.482Z,2.60
2023-01-12T10:46:31.702Z,2.30
2023-01-12T10:48:22.050Z,3.20
2023-01-12T10:50:21.325Z,1.90
2023-01-12T10:52:06.355Z,3.10
2023-01-12T10:53:44.788Z,2.20
2023-01-12T10:55:22.393Z,4.80
2023-01-12T10:57:01.741Z,5.70
2023-01-12T10:58:33.679Z,3.40
2023-01-12T11:00:19.906Z,1.70
2023-01-12T11:02:12.599Z,1.90
2023-01-12T11:03:44.524Z,4.10
2023-01-12T11:05:38.434Z,1.40
2023-01-12T11:07:22.304Z,2.70
2023-01-12T11:08:55.694Z,1.90
2023-01-12T11:10:36.678Z,3.40
2023-01-12T11:12:36.597Z,3.50
2023-01-12T11:14:25.924Z,3.30
2023-01-12T11:16:19.558Z,3.00
2023-01-12T11:18:12.974Z,3.00
2023-01-12T11:19:49.138Z,2.00
2023-01-12T11:21:29.570Z,2.80
2023-01-12T11:23:15.134Z,5.20
2023-01-12T11:25:02.819Z,5.40
2023-01-12T11:26:46.369Z,4.10
2023-01-12T11:28:39.333Z,5.10
2023-01-12T11:30:34.566Z,4.20
2023-01-12T11:32:26.420Z,2.60
2023-01-12T11:34:21.626Z,3.60
2023-01-12T11:36:07.564Z,2.60
2023-01-12T11:37:42.830Z,3.90
2023-01-12T11:39:22.684Z,1.80
2023-01-12T11:40:58.688Z,2.80
2023-01-12T11:42:51.317Z,2.90
2023-01-12T11:44:34.505Z,2.30
2023-01-12T11:46:46.053Z,1.90
2023-01-12T11:48:32.827Z,3.00
2023-01-12T11:50:25.334Z,3.00
2023-01-12T11:52:00.179Z,3.50
2023-01-12T11:53:31.993Z,3.10
2023-01-12T11:55:04.356Z,2.40
2023-01-12T11:56:54.819Z,3.10
2023-01-12T11:58:44.500Z,4.70
2023-01-12T12:00:50.278Z,4.50
2023-01-12T12:02:37.505Z,2.60
2023-01-12T12:04:48.920Z,3.00
2023-01-12T12:06:41.490Z,1.40
2023-01-12T12:08:49.564Z,6.20
2023-01-12T12:10:50.203Z,4.20
2023-01-12T12:13:28.389Z,2.00
2023-01-12T12:15:34.305Z,2.60
2023-01-12T12:17:24.456Z,4.00
2023-01-12T12:19:21.006Z,6.50
2023-01-12T12:21:32.385Z,3.00
2023-01-12T12:23:25.708Z,3.60
2023-01-12T12:25:12.656Z,2.70
2023-01-12T12:26:53.705Z,2.60
2023-01-12T12:29:03.138Z,3.30
2023-01-12T12:31:14.824Z,1.30
2023-01-12T12:32:59.427Z,2.80
2023-01-12T12:35:06.646Z,3.50
2023-01-12T12:37:25.578Z,2.90
2023-01-12T12:39:29.651Z,2.50
2023-01-12T12:41:59.330Z,2.40
2023-01-12T12:43:53.827Z,1.90
2023-01-12T12:45:43.472Z,2.70
2023-01-12T12:47:37.148Z,4.40
2023-01-12T12:49:15.867Z,2.10
2023-01-12T12:51:11.836Z,2.70
2023-01-12T12:52:53.644Z,2.90
2023-01-12T12:54:27.792Z,4.20
2023-01-12T12:56:06.718Z,1.90
2023-01-12T12:58:23.020Z,2.10
2023-01-12T13:00:00.151Z,3.50
2023-01-12T13:01:36.411Z,4.80
2023-01-12T13:03:10.256Z,3.30
2023-01-12T13:04:52.056Z,2.40
2023-01-12T13:06:42.799Z,2.00
2023-01-12T13:08:26.013Z,2.50
2023-01-12T13:10:27.715Z,3.80
2023-01-12T13:12:00.247Z,3.80
2023-01-12T13:13:37.897Z,2.60
2023-01-12T13:15:26.294Z,2.70
2023-01-12T13:17:03.664Z,3.40
2023-01-12T13:18:51.300Z,2.10
2023-01-12T13:20:34.422Z,3.50
2023-01-12T13:22:41.619Z,2.10
2023-01-12T13:24:13.380Z,3.00
2023-01-12T13:25:56.883Z,1.80
2023-01-12T13:28:00.828Z,2.90
2023-01-12T13:29:39.004Z,3.10
2023-01-12T13:31:32.370Z,2.90
2023-01-12T13:33:28.230Z,2.70
2023-01-12T13:35:01.128Z,3.70
2023-01-12T13:36:33.149Z,2.50
2023-01-12T13:38:20.177Z,1.80
2023-01-12T13:40:19.897Z,3.20
2023-01-12T13:42:16.861Z,2.20
2023-01-12T13:43:51.012Z,2.20
2023-01-12T13:45:24.130Z,4.40
2023-01-12T13:47:09.298Z,1.70
2023-01-12T13:48:48.744Z,1.60
2023-01-12T13:50:28.333Z,1.90
2023-01-12T13:52:02.719Z,2.50
2023-01-12T13:53:34.582Z,4.60
2023-01-12T13:55:37.107Z,2.40
2023-01-12T13:57:22.431Z,1.50
2023-01-12T13:59:04.228Z,1.90
2023-01-12T14:00:36.308Z,1.10
2023-01-12T14:02:18.720Z,4.00
2023-01-12T14:04:20.217Z,1.90
2023-01-12T14:06:14.690Z,2.90
2023-01-12T14:07:52.961Z,1.10
2023-01-12T14:10:04.215Z,0.70
2023-01-12T14:11:57.037Z,2.80
2023-01-12T14:14:37.080Z,2.00
2023-01-12T14:16:34.625Z,1.00
2023-01-12T14:18:13.788Z,1.50
2023-01-12T14:19:52.094Z,4.20
2023-01-12T14:21:26.066Z,1.80
2023-01-12T14:23:26.607Z,1.90
2023-01-12T14:25:23.475Z,3.60
2023-01-12T14:26:55.257Z,2.00
2023-01-12T14:28:29.645Z,2.30
2023-01-12T14:30:01.684Z,1.60
2023-01-12T14:31:45.480Z,4.30
2023-01-12T14:33:24.209Z,1.80
2023-01-12T14:34:56.301Z,1.80
2023-01-12T14:36:34.544Z,1.30
2023-01-12T14:38:13.811Z,2.90
2023-01-12T14:39:46.817Z,1.50
2023-01-12T14:41:42.540Z,1.50
2023-01-12T14:43:35.807Z,1.40
2023-01-12T14:45:38.928Z,2.20
2023-01-12T14:47:31.406Z,2.30
2023-01-12T14:49:22.060Z,4.60
2023-01-12T14:51:14.266Z,2.00
2023-01-12T14:52:48.536Z,3.40
2023-01-12T14:54:30.693Z,3.90
2023-01-12T14:56:17.599Z,3.20
2023-01-12T14:57:54.995Z,2.00
2023-01-12T14:59:32.375Z,4.20
2023-01-12T15:01:04.727Z,1.20
2023-01-12T15:02:40.768Z,1.00
2023-01-12T15:04:23.775Z,1.30
2023-01-12T15:05:55.708Z,2.10
2023-01-12T15:07:37.267Z,2.70
2023-01-12T15:09:36.896Z,1.30
2023-01-12T15:11:10.220Z,0.70
2023-01-12T15:12:54.642Z,1.80
2023-01-12T15:14:29.291Z,2.00
2023-01-12T15:16:21.263Z,2.30
2023-01-12T15:18:14.182Z,1.40
2023-01-12T15:20:04.404Z,1.90
2023-01-12T15:21:56.861Z,1.30
2023-01-12T15:23:52.830Z,2.60
2023-01-12T15:25:36.982Z,2.90
2023-01-12T15:27:11.729Z,1.10
2023-01-12T15:28:44.859Z,2.20
2023-01-12T15:30:17.237Z,1.90
2023-01-12T15:31:49.114Z,2.30
2023-01-12T15:33:21.630Z,2.70
2023-01-12T15:34:53.624Z,2.60
2023-01-12T15:36:25.517Z,1.70
2023-01-12T15:37:59.485Z,1.70
2023-01-12T15:39:31.414Z,3.10
2023-01-12T15:41:04.986Z,1.70
2023-01-12T15:42:36.710Z,2.10
2023-01-12T15:44:14.579Z,1.60
2023-01-12T15:45:48.005Z,1.80
2023-01-12T15:47:21.580Z,1.40
2023-01-12T15:48:53.573Z,1.50
2023-01-12T15:50:25.411Z,4.70
2023-01-12T15:51:57.231Z,1.20
2023-01-12T15:53:29.021Z,2.80
2023-01-12T15:55:00.790Z,2.70
2023-01-12T15:56:35.121Z,1.50
2023-01-12T15:58:07.796Z,1.60
2023-01-12T15:59:40.452Z,3.40
2023-01-12T16:01:18.157Z,1.50
2023-01-12T16:02:52.239Z,3.80
2023-01-12T16:04:42.163Z,2.90
2023-01-12T16:06:15.148Z,2.60
2023-01-12T16:07:48.776Z,1.40
2023-01-12T16:09:20.767Z,2.90
2023-01-12T16:11:12.285Z,1.10
2023-01-12T16:12:46.012Z,2.80
2023-01-12T16:14:18.127Z,1.10
2023-01-12T16:15:49.855Z,1.70
2023-01-12T16:17:22.243Z,0.90
2023-01-12T16:18:58.730Z,1.60
2023-01-12T16:20:30.549Z,3.90
2023-01-12T16:22:02.316Z,2.30
2023-01-12T16:23:35.354Z,1.50
2023-01-12T16:25:07.847Z,1.80
2023-01-12T16:26:39.617Z,1.50
2023-01-12T16:28:11.992Z,2.80
2023-01-12T16:29:45.044Z,2.90
2023-01-12T16:31:16.959Z,1.40
2023-01-12T16:32:49.493Z,1.20
2023-01-12T16:34:23.591Z,5.70
2023-01-12T16:35:56.456Z,2.60
2023-01-12T16:37:33.216Z,2.70
2023-01-12T16:39:05.163Z,1.50
2023-01-12T16:40:41.392Z,3.10
2023-01-12T16:42:13.267Z,1.70
2023-01-12T16:43:47.139Z,2.50
2023-01-12T16:45:18.963Z,2.90
2023-01-12T16:46:51.191Z,1.90
2023-01-12T16:48:23.066Z,3.70
2023-01-12T16:49:54.820Z,2.50
2023-01-12T16:51:26.576Z,2.60
2023-01-12T16:52:58.308Z,2.60
2023-01-12T16:54:30.112Z,1.30
2023-01-12T16:56:03.582Z,2.80
2023-01-12T16:57:35.440Z,2.80
2023-01-12T16:59:08.052Z,2.20
2023-01-12T17:00:40.089Z,1.90
2023-01-12T17:02:17.669Z,1.70
2023-01-12T17:03:51.224Z,1.80
2023-01-12T17:05:23.339Z,2.50
2023-01-12T17:06:55.202Z,2.90
2023-01-12T17:08:28.623Z,3.10
2023-01-12T17:10:00.640Z,2.40
2023-01-12T17:11:35.779Z,3.90
2023-01-12T17:13:07.638Z,3.40
2023-01-12T17:14:39.785Z,2.60
2023-01-12T17:16:12.470Z,2.60
2023-01-12T17:17:44.883Z,4.00
2023-01-12T17:19:19.284Z,4.40
2023-01-12T17:21:05.460Z,2.70
2023-01-12T17:22:38.053Z,3.50
2023-01-12T17:24:12.129Z,1.90
2023-01-12T17:25:44.025Z,1.80
2023-01-12T17:27:16.053Z,2.80
2023-01-12T17:28:47.913Z,2.10
2023-01-12T17:30:22.419Z,4.90
2023-01-12T17:32:06.726Z,2.50
2023-01-12T17:33:40.805Z,3.00
2023-01-12T17:35:14.534Z,2.50
2023-01-12T17:36:48.235Z,4.00
2023-01-12T17:38:20.017Z,2.20
2023-01-12T17:39:53.020Z,3.30
2023-01-12T17:41:44.007Z,1.90
2023-01-12T17:43:16.030Z,3.90
2023-01-12T17:44:47.831Z,2.40
2023-01-12T17:46:19.618Z,1.50
2023-01-12T17:47:51.528Z,2.00
2023-01-12T17:49:23.334Z,1.80
2023-01-12T17:50:55.319Z,3.20
2023-01-12T17:52:27.255Z,3.20
2023-01-12T17:54:02.522Z,2.60
2023-01-12T17:55:40.159Z,2.10
2023-01-12T17:57:21.926Z,1.50
2023-01-12T17:58:55.578Z,3.40
2023-01-12T18:00:28.176Z,2.70
2023-01-12T18:02:00.098Z,1.90
2023-01-12T18:03:32.028Z,3.00
2023-01-12T18:05:04.490Z,2.60
2023-01-12T18:06:36.468Z,1.80
2023-01-12T18:08:08.171Z,2.50
2023-01-12T18:09:39.942Z,2.10
2023-01-12T18:11:13.594Z,1.40
2023-01-12T18:12:45.454Z,1.80
2023-01-12T18:14:20.994Z,4.00
2023-01-12T18:15:52.952Z,2.00
2023-01-12T18:17:25.287Z,3.50
2023-01-12T18:18:58.092Z,2.10
2023-01-12T18:20:30.086Z,2.50
2023-01-12T18:22:06.854Z,2.60
2023-01-12T18:23:39.719Z,3.40
2023-01-12T18:25:11.656Z,2.30
2023-01-12T18:26:43.496Z,2.20
2023-01-12T18:28:15.216Z,2.80
2023-01-12T18:29:49.595Z,2.00
2023-01-12T18:31:31.492Z,4.00
2023-01-12T18:33:04.616Z,3.40
2023-01-12T18:34:38.432Z,2.60
2023-01-12T18:36:20.408Z,2.20
2023-01-12T18:37:52.178Z,3.70
2023-01-12T18:39:24.127Z,2.50
2023-01-12T18:41:15.042Z,2.40
2023-01-12T18:42:54.610Z,2.90
2023-01-12T18:44:26.484Z,2.50
2023-01-12T18:46:11.031Z,2.00
2023-01-12T18:48:01.739Z,2.10
2023-01-12T18:49:37.008Z,4.00
2023-01-12T18:51:27.822Z,2.60
2023-01-12T18:53:18.399Z,3.60
2023-01-12T18:54:54.763Z,4.00
2023-01-12T18:56:26.689Z,3.50
2023-01-12T18:57:58.561Z,2.80
2023-01-12T18:59:30.356Z,2.90
2023-01-12T19:01:13.904Z,2.90
2023-01-12T19:02:46.963Z,4.00
2023-01-12T19:04:29.633Z,2.50
2023-01-12T19:06:20.457Z,0.70
2023-01-12T19:07:58.000Z,4.90
2023-01-12T19:09:37.397Z,3.50
2023-01-12T19:11:14.381Z,2.10
2023-01-12T19:12:46.187Z,4.00
2023-01-12T19:14:37.063Z,3.20
2023-01-12T19:16:32.953Z,2.90
2023-01-12T19:18:04.765Z,2.70
2023-01-12T19:19:36.677Z,3.50
2023-01-12T19:21:28.025Z,4.10
2023-01-12T19:23:18.514Z,1.80
2023-01-12T19:25:09.026Z,2.40
2023-01-12T19:26:59.418Z,1.80
2023-01-12T19:28:38.242Z,2.10
2023-01-12T19:30:11.714Z,3.80
2023-01-12T19:31:43.541Z,4.20
2023-01-12T19:33:16.780Z,3.40
2023-01-12T19:34:50.454Z,4.20
2023-01-12T19:36:22.449Z,2.00
2023-01-12T19:37:54.159Z,2.50
2023-01-12T19:39:46.373Z,2.10
2023-01-12T19:41:37.293Z,1.30
2023-01-12T19:43:20.315Z,4.30
2023-01-12T19:44:52.036Z,1.60
2023-01-12T19:46:23.801Z,4.90
2023-01-12T19:47:55.588Z,2.00
2023-01-12T19:49:27.587Z,2.40
2023-01-12T19:51:10.455Z,4.40
2023-01-12T19:52:44.134Z,3.50
2023-01-12T19:54:15.931Z,2.40
2023-01-12T19:55:51.035Z,2.10
2023-01-12T19:57:22.940Z,2.90
2023-01-12T19:58:54.890Z,4.70
2023-01-12T20:00:28.120Z,2.10
2023-01-12T20:02:01.401Z,3.40
2023-01-12T20:03:35.130Z,4.50
2023-01-12T20:05:07.464Z,2.70
2023-01-12T20:06:39.271Z,2.80
2023-01-12T20:08:11.641Z,3.90
2023-01-12T20:09:43.352Z,2.70
2023-01-12T20:11:16.362Z,2.70
2023-01-12T20:12:51.388Z,2.20
2023-01-12T20:14:23.188Z,1.00
2023-01-12T20:15:56.888Z,2.40
2023-01-12T20:17:28.710Z,2.90
2023-01-12T20:19:01.140Z,2.90
2023-01-12T20:20:33.301Z,5.20
2023-01-12T20:22:05.090Z,3.70
2023-01-12T20:23:37.214Z,3.60
2023-01-12T20:25:10.852Z,5.10
2023-01-12T20:26:42.965Z,2.50
2023-01-12T20:28:15.198Z,3.50
2023-01-12T20:29:46.960Z,2.20
2023-01-12T20:31:23.399Z,3.90
2023-01-12T20:32:55.221Z,1.90
2023-01-12T20:34:26.927Z,4.80
2023-01-12T20:35:58.629Z,2.00
2023-01-12T20:37:33.504Z,1.70
2023-01-12T20:39:11.009Z,1.90
2023-01-12T20:40:45.510Z,3.10
2023-01-12T20:42:17.242Z,2.70
2023-01-12T20:43:49.300Z,3.20
2023-01-12T20:45:22.070Z,3.00
2023-01-12T20:46:53.942Z,2.60
2023-01-12T20:48:25.927Z,1.70
2023-01-12T20:49:58.471Z,5.60
2023-01-12T20:51:31.098Z,2.30
2023-01-12T20:53:02.909Z,2.60
2023-01-12T20:54:34.895Z,2.40
2023-01-12T20:56:09.027Z,2.40
2023-01-12T20:57:40.817Z,2.20
2023-01-12T20:59:12.615Z,3.60
2023-01-12T21:00:46.099Z,2.50
2023-01-12T21:02:25.153Z,3.80
2023-01-12T21:03:58.148Z,2.30
2023-01-12T21:05:30.569Z,1.80
2023-01-12T21:07:02.561Z,1.40
2023-01-12T21:08:34.411Z,2.30
2023-01-12T21:10:08.892Z,2.00
2023-01-12T21:11:42.274Z,1.70
2023-01-12T21:13:14.011Z,3.50
2023-01-12T21:14:45.791Z,3.30
2023-01-12T21:16:19.964Z,4.30
2023-01-12T21:17:51.875Z,2.30
2023-01-12T21:19:23.788Z,1.90
2023-01-12T21:20:56.734Z,1.30
2023-01-12T21:22:28.456Z,2.00
2023-01-12T21:24:00.248Z,2.10
2023-01-12T21:25:33.363Z,2.90
2023-01-12T21:27:05.091Z,2.90
2023-01-12T21:28:39.680Z,1.60
2023-01-12T21:30:12.505Z,3.30
2023-01-12T21:31:44.308Z,2.30
2023-01-12T21:33:16.163Z,1.90
2023-01-12T21:34:50.392Z,2.50
2023-01-12T21:36:23.469Z,3.40
2023-01-12T21:37:55.250Z,0.80
2023-01-12T21:39:27.049Z,1.80
2023-01-12T21:41:04.793Z,1.50
2023-01-12T21:42:55.495Z,1.80
2023-01-12T21:44:27.682Z,2.40
2023-01-12T21:46:10.527Z,1.20
2023-01-12T21:47:42.321Z,2.10
2023-01-12T21:49:14.163Z,2.40
2023-01-12T21:50:47.358Z,3.00